createdAt,value
2022-11-03T00:02:11.864Z,9.63
2022-11-03T00:04:39.226Z,12.10
2022-11-03T00:07:06.560Z,8.98
2022-11-03T00:09:33.837Z,9.50
2022-11-03T00:12:01.792Z,12.10
2022-11-03T00:14:29.039Z,9.45
2022-11-03T00:16:56.361Z,11.98
2022-11-03T00:19:23.684Z,7.72
2022-11-03T00:21:51.025Z,11.70
2022-11-03T00:24:18.309Z,9.30
2022-11-03T00:26:54.024Z,9.88
2022-11-03T00:29:21.586Z,9.98
2022-11-03T00:31:48.823Z,10.73
2022-11-03T00:34:16.047Z,11.02
2022-11-03T00:36:45.012Z,10.63
2022-11-03T00:39:13.161Z,12.35
2022-11-03T00:41:40.820Z,8.15
2022-11-03T00:44:10.375Z,7.90
2022-11-03T00:46:37.659Z,10.43
2022-11-03T00:49:05.648Z,10.45
2022-11-03T00:51:34.930Z,9.07
2022-11-03T00:54:04.256Z,8.95
2022-11-03T00:56:34.561Z,9.55
2022-11-03T00:59:03.105Z,8.73
2022-11-03T01:01:33.249Z,10.27
2022-11-03T01:04:19.625Z,7.75
2022-11-03T01:06:52.239Z,10.88
2022-11-03T01:09:40.994Z,9.00
2022-11-03T01:12:14.881Z,11.20
2022-11-03T01:14:51.281Z,9.40
2022-11-03T01:17:27.672Z,15.90
2022-11-03T01:19:55.493Z,8.82
2022-11-03T01:22:23.897Z,9.13
2022-11-03T01:24:54.524Z,13.15
2022-11-03T01:27:23.055Z,9.45
2022-11-03T01:29:50.408Z,10.20
2022-11-03T01:32:17.647Z,11.68
2022-11-03T01:34:44.918Z,12.90
2022-11-03T01:37:12.221Z,8.35
2022-11-03T01:39:39.482Z,11.18
2022-11-03T01:42:06.843Z,6.60
2022-11-03T01:44:36.988Z,10.15
2022-11-03T01:47:10.134Z,10.13
2022-11-03T01:50:03.043Z,8.82
2022-11-03T01:52:48.508Z,7.95
2022-11-03T01:55:27.682Z,8.43
2022-11-03T01:58:05.753Z,7.65
2022-11-03T02:00:33.740Z,9.45
2022-11-03T02:03:01.918Z,12.40
2022-11-03T02:05:30.076Z,12.90
2022-11-03T02:08:05.414Z,11.32
2022-11-03T02:10:32.872Z,5.35
2022-11-03T02:13:00.559Z,10.75
2022-11-03T02:15:29.189Z,11.27
2022-11-03T02:17:57.401Z,7.90
2022-11-03T02:20:28.126Z,8.55
2022-11-03T02:23:16.532Z,8.02
2022-11-03T02:26:02.324Z,10.13
2022-11-03T02:28:32.075Z,11.18
2022-11-03T02:31:10.917Z,11.63
2022-11-03T02:33:49.862Z,8.02
2022-11-03T02:36:32.480Z,6.30
2022-11-03T02:39:28.877Z,9.68
2022-11-03T02:41:59.010Z,14.52
2022-11-03T02:44:28.276Z,11.32
2022-11-03T02:47:00.642Z,11.38
2022-11-03T02:49:28.280Z,10.32
2022-11-03T02:52:03.512Z,6.93
2022-11-03T02:54:44.203Z,8.32
2022-11-03T02:57:18.726Z,6.95
2022-11-03T03:00:05.296Z,6.97
2022-11-03T03:02:49.840Z,9.18
2022-11-03T03:05:18.939Z,7.80
2022-11-03T03:07:49.349Z,8.70
2022-11-03T03:10:48.468Z,10.52
2022-11-03T03:13:19.962Z,11.55
2022-11-03T03:16:02.239Z,9.68
2022-11-03T03:19:03.410Z,12.32
2022-11-03T03:21:37.343Z,10.93
2022-11-03T03:24:31.220Z,7.50
2022-11-03T03:27:03.292Z,11.23
2022-11-03T03:29:37.517Z,8.52
2022-11-03T03:32:09.697Z,15.18
2022-11-03T03:34:41.751Z,9.13
2022-11-03T03:37:11.818Z,8.52
2022-11-03T03:39:42.786Z,9.95
2022-11-03T03:42:11.693Z,8.40
2022-11-03T03:44:41.775Z,8.82
2022-11-03T03:47:18.666Z,9.68
2022-11-03T03:49:46.005Z,10.18
2022-11-03T03:52:13.942Z,9.77
2022-11-03T03:54:41.200Z,8.90
2022-11-03T03:57:15.702Z,6.22
2022-11-03T03:59:43.874Z,10.63
2022-11-03T04:02:12.525Z,8.75
2022-11-03T04:04:40.443Z,13.68
2022-11-03T04:07:27.406Z,11.02
2022-11-03T04:09:54.805Z,7.57
2022-11-03T04:12:41.118Z,7.97
2022-11-03T04:15:31.398Z,8.10
2022-11-03T04:18:17.162Z,8.02
2022-11-03T04:21:02.985Z,9.02
2022-11-03T04:23:30.236Z,10.32
2022-11-03T04:25:58.903Z,9.25
2022-11-03T04:28:27.213Z,7.32
2022-11-03T04:30:59.045Z,9.52
2022-11-03T04:33:28.883Z,6.45
2022-11-03T04:36:00.066Z,6.18
2022-11-03T04:38:29.298Z,9.23
2022-11-03T04:40:58.230Z,10.95
2022-11-03T04:43:37.788Z,8.13
2022-11-03T04:46:05.969Z,9.65
2022-11-03T04:48:34.398Z,12.80
2022-11-03T04:51:11.172Z,13.10
2022-11-03T04:53:40.074Z,7.80
2022-11-03T04:56:15.457Z,6.88
2022-11-03T04:58:42.972Z,9.43
2022-11-03T05:01:19.536Z,13.38
2022-11-03T05:03:53.542Z,8.18
2022-11-03T05:06:27.388Z,10.98
2022-11-03T05:09:01.995Z,11.93
2022-11-03T05:11:38.930Z,8.52
2022-11-03T05:14:25.841Z,7.50
2022-11-03T05:16:55.379Z,10.05
2022-11-03T05:19:38.410Z,5.72
2022-11-03T05:22:12.411Z,8.93
2022-11-03T05:24:39.690Z,10.52
2022-11-03T05:27:20.975Z,8.32
2022-11-03T05:29:49.875Z,10.48
2022-11-03T05:32:24.629Z,11.15
2022-11-03T05:37:30.086Z,11.30
2022-11-03T05:40:10.435Z,10.70
2022-11-03T05:42:41.828Z,8.05
2022-11-03T05:45:22.558Z,7.55
2022-11-03T05:47:52.779Z,8.32
2022-11-03T05:50:25.413Z,5.15
2022-11-03T05:53:14.812Z,7.55
2022-11-03T05:55:43.260Z,9.25
2022-11-03T05:58:34.754Z,5.50
2022-11-03T06:01:07.143Z,9.18
2022-11-03T06:03:36.377Z,7.55
2022-11-03T06:06:20.040Z,7.78
2022-11-03T06:08:47.794Z,10.68
2022-11-03T06:11:24.635Z,8.23
2022-11-03T06:13:52.192Z,11.00
2022-11-03T06:16:35.463Z,11.90
2022-11-03T06:19:27.085Z,16.13
2022-11-03T06:21:58.017Z,8.68
2022-11-03T06:24:31.187Z,10.40
2022-11-03T06:26:58.759Z,9.43
2022-11-03T06:29:26.512Z,11.25
2022-11-03T06:31:57.398Z,11.25
2022-11-03T06:34:38.851Z,11.52
2022-11-03T06:37:23.401Z,10.65
2022-11-03T06:39:53.809Z,8.68
2022-11-03T06:42:23.785Z,7.88
2022-11-03T06:44:52.096Z,11.43
2022-11-03T06:47:23.606Z,10.95
2022-11-03T06:49:53.924Z,9.10
2022-11-03T06:52:28.765Z,7.25
2022-11-03T06:55:00.897Z,9.45
2022-11-03T06:57:31.636Z,11.23
2022-11-03T07:00:19.952Z,8.55
2022-11-03T07:03:05.230Z,10.13
2022-11-03T07:05:33.789Z,7.03
2022-11-03T07:08:09.727Z,11.30
2022-11-03T07:10:36.979Z,9.25
2022-11-03T07:13:14.133Z,11.35
2022-11-03T07:15:43.851Z,9.55
2022-11-03T07:18:27.007Z,12.25
2022-11-03T07:20:55.748Z,10.88
2022-11-03T07:23:26.217Z,12.05
2022-11-03T07:25:56.797Z,7.65
2022-11-03T07:28:35.588Z,8.50
2022-11-03T07:31:16.423Z,9.43
2022-11-03T07:33:44.098Z,8.55
2022-11-03T07:36:20.670Z,13.45
2022-11-03T07:38:52.498Z,7.22
2022-11-03T07:41:22.128Z,8.30
2022-11-03T07:43:58.092Z,10.15
2022-11-03T07:46:26.695Z,10.57
2022-11-03T07:49:02.742Z,6.82
2022-11-03T07:51:42.401Z,5.03
2022-11-03T07:54:12.365Z,10.23
2022-11-03T07:56:45.034Z,8.38
2022-11-03T07:59:21.893Z,10.75
2022-11-03T08:01:55.724Z,7.80
2022-11-03T08:04:29.746Z,5.60
2022-11-03T08:06:57.363Z,14.15
2022-11-03T08:09:24.572Z,8.18
2022-11-03T08:11:52.034Z,5.65
2022-11-03T08:14:19.343Z,9.85
2022-11-03T08:16:46.650Z,10.52
2022-11-03T08:19:13.866Z,10.10
2022-11-03T08:21:41.179Z,10.85
2022-11-03T08:24:08.455Z,4.88
2022-11-03T08:26:35.696Z,11.70
2022-11-03T08:29:03.010Z,6.32
2022-11-03T08:31:30.335Z,7.60
2022-11-03T08:33:57.668Z,9.75
2022-11-03T08:36:25.004Z,7.82
2022-11-03T08:38:52.308Z,9.02
2022-11-03T08:41:19.591Z,9.70
2022-11-03T08:43:46.868Z,8.55
2022-11-03T08:46:17.789Z,9.57
2022-11-03T08:48:46.262Z,10.52
2022-11-03T08:51:14.646Z,7.28
2022-11-03T08:53:42.942Z,7.47
2022-11-03T08:56:13.162Z,10.30
2022-11-03T08:58:44.107Z,7.15
2022-11-03T09:01:11.682Z,5.97
2022-11-03T09:03:39.821Z,6.72
2022-11-03T09:06:09.202Z,8.77
2022-11-03T09:11:23.994Z,5.15
2022-11-03T09:13:51.234Z,8.15
2022-11-03T09:16:18.552Z,6.20
2022-11-03T09:18:45.980Z,8.27
2022-11-03T09:21:14.723Z,6.95
2022-11-03T09:23:42.058Z,5.32
2022-11-03T09:26:09.350Z,8.10
2022-11-03T09:28:36.623Z,6.35
2022-11-03T09:31:03.882Z,8.80
2022-11-03T09:33:31.155Z,4.85
2022-11-03T09:35:58.503Z,8.23
2022-11-03T09:38:25.809Z,8.05
2022-11-03T09:40:53.032Z,4.50
2022-11-03T09:43:20.487Z,7.05
2022-11-03T09:45:47.897Z,7.15
2022-11-03T09:48:15.423Z,10.57
2022-11-03T09:50:43.197Z,5.32
2022-11-03T09:53:12.206Z,8.40
2022-11-03T09:55:40.235Z,5.53
2022-11-03T09:58:14.990Z,5.65
2022-11-03T10:03:15.339Z,7.60
2022-11-03T10:05:45.111Z,5.05
2022-11-03T10:08:21.478Z,3.67
2022-11-03T10:10:51.579Z,11.25
2022-11-03T10:13:29.209Z,10.38
2022-11-03T10:15:58.471Z,3.47
2022-11-03T10:18:27.848Z,6.47
2022-11-03T10:20:55.757Z,6.18
2022-11-03T10:23:23.003Z,6.05
2022-11-03T10:25:50.458Z,7.57
2022-11-03T10:28:23.235Z,7.95
2022-11-03T10:34:01.467Z,5.63
2022-11-03T10:36:32.280Z,6.32
2022-11-03T10:39:01.784Z,7.90
2022-11-03T10:41:31.175Z,14.32
2022-11-03T10:44:26.434Z,5.47
2022-11-03T10:47:05.231Z,13.40
2022-11-03T10:49:39.388Z,5.43
2022-11-03T10:52:22.727Z,6.85
2022-11-03T10:54:52.677Z,6.13
2022-11-03T10:57:21.302Z,6.82
2022-11-03T10:59:51.294Z,5.93
2022-11-03T11:02:22.225Z,6.68
2022-11-03T11:05:01.373Z,5.85
2022-11-03T11:07:38.763Z,8.10
2022-11-03T11:10:11.480Z,4.88
2022-11-03T11:12:39.382Z,5.72
2022-11-03T11:15:36.686Z,7.40
2022-11-03T11:18:04.011Z,6.72
2022-11-03T11:20:44.448Z,6.90
2022-11-03T11:23:27.138Z,6.72
2022-11-03T11:26:09.810Z,5.15
2022-11-03T11:29:08.098Z,6.50
2022-11-03T11:31:39.199Z,4.85
2022-11-03T11:34:09.590Z,6.50
2022-11-03T11:36:41.306Z,2.88
2022-11-03T11:39:20.530Z,3.08
2022-11-03T11:42:06.610Z,4.05
2022-11-03T11:44:39.882Z,5.95
2022-11-03T11:47:35.701Z,4.38
2022-11-03T11:50:06.250Z,7.57
2022-11-03T11:52:44.415Z,6.60
2022-11-03T11:55:27.030Z,7.00
2022-11-03T11:57:55.337Z,4.22
2022-11-03T12:00:31.350Z,6.15
2022-11-03T12:03:01.175Z,7.20
2022-11-03T12:05:34.144Z,4.50
2022-11-03T12:08:01.828Z,7.65
2022-11-03T12:10:32.025Z,6.32
2022-11-03T12:13:00.196Z,3.45
2022-11-03T12:15:56.684Z,5.35
2022-11-03T12:18:40.699Z,5.45
2022-11-03T12:23:56.494Z,6.28
2022-11-03T12:26:29.832Z,6.88
2022-11-03T12:28:57.092Z,4.45
2022-11-03T12:31:24.409Z,8.82
2022-11-03T12:33:51.709Z,8.63
2022-11-03T12:36:18.927Z,4.38
2022-11-03T12:38:46.147Z,5.18
2022-11-03T12:41:22.352Z,3.92
2022-11-03T12:43:50.347Z,5.57
2022-11-03T12:46:19.132Z,4.93
2022-11-03T12:48:48.024Z,4.72
2022-11-03T12:51:20.901Z,8.13
2022-11-03T12:53:48.514Z,4.00
2022-11-03T12:56:17.453Z,6.05
2022-11-03T12:58:45.121Z,4.68
2022-11-03T13:01:12.902Z,6.57
2022-11-03T13:03:40.453Z,4.40
2022-11-03T13:06:10.127Z,5.43
2022-11-03T13:08:38.103Z,4.88
2022-11-03T13:11:25.400Z,7.68
2022-11-03T13:13:53.256Z,4.47
2022-11-03T13:16:20.965Z,6.75
2022-11-03T13:18:48.465Z,6.47
2022-11-03T13:21:15.835Z,7.53
2022-11-03T13:23:43.114Z,5.28
2022-11-03T13:26:10.815Z,7.18
2022-11-03T13:28:38.132Z,5.88
2022-11-03T13:31:05.516Z,5.13
2022-11-03T13:33:32.931Z,3.78
2022-11-03T13:36:00.380Z,5.30
2022-11-03T13:38:27.744Z,4.03
2022-11-03T13:40:57.102Z,6.07
2022-11-03T13:43:25.799Z,3.78
2022-11-03T13:45:53.110Z,7.20
2022-11-03T13:51:10.518Z,6.32
2022-11-03T13:56:26.192Z,5.53
2022-11-03T14:01:41.639Z,7.68
2022-11-03T14:06:56.653Z,4.30
2022-11-03T14:09:24.260Z,5.40
2022-11-03T14:12:10.384Z,5.68
2022-11-03T14:14:37.696Z,5.40
2022-11-03T14:17:04.951Z,4.40
2022-11-03T14:19:38.116Z,8.77
2022-11-03T14:22:07.047Z,4.93
2022-11-03T14:24:34.472Z,3.28
2022-11-03T14:27:01.774Z,5.45
2022-11-03T14:29:29.040Z,6.88
2022-11-03T14:31:56.304Z,4.63
2022-11-03T14:34:23.639Z,6.00
2022-11-03T14:36:51.946Z,3.40
2022-11-03T14:39:22.034Z,5.82
2022-11-03T14:42:04.548Z,6.43
2022-11-03T14:44:33.820Z,4.13
2022-11-03T14:47:02.587Z,10.93
2022-11-03T14:49:31.198Z,5.35
2022-11-03T14:52:01.515Z,5.65
2022-11-03T14:54:30.439Z,5.88
2022-11-03T14:56:57.775Z,6.22
2022-11-03T14:59:25.164Z,5.15
2022-11-03T15:01:53.412Z,4.15
2022-11-03T15:04:22.016Z,8.60
2022-11-03T15:06:49.900Z,5.53
2022-11-03T15:09:17.246Z,6.15
2022-11-03T15:11:45.304Z,6.32
2022-11-03T15:14:13.125Z,7.00
2022-11-03T15:16:40.651Z,6.68
2022-11-03T15:19:08.766Z,9.88
2022-11-03T15:21:36.181Z,7.88
2022-11-03T15:26:50.915Z,10.57
2022-11-03T15:29:18.276Z,4.40
2022-11-03T15:31:48.204Z,7.13
2022-11-03T15:34:16.507Z,5.47
2022-11-03T15:36:43.824Z,7.97
2022-11-03T15:39:11.072Z,7.68
2022-11-03T15:41:38.358Z,6.90
2022-11-03T15:44:05.629Z,4.55
2022-11-03T15:46:32.950Z,5.03
2022-11-03T15:49:00.543Z,9.48
2022-11-03T15:51:27.846Z,5.82
2022-11-03T15:53:58.534Z,6.05
2022-11-03T15:56:30.148Z,5.82
2022-11-03T15:58:57.615Z,9.32
2022-11-03T16:01:25.205Z,6.95
2022-11-03T16:03:52.520Z,5.93
2022-11-03T16:06:27.133Z,7.50
2022-11-03T16:09:07.917Z,6.78
2022-11-03T16:11:35.188Z,7.72
2022-11-03T16:14:02.455Z,8.30
2022-11-03T16:16:29.775Z,8.75
2022-11-03T16:18:56.974Z,6.57
2022-11-03T16:21:24.924Z,11.50
2022-11-03T16:23:52.188Z,7.30
2022-11-03T16:26:21.859Z,4.85
2022-11-03T16:28:49.103Z,6.60
2022-11-03T16:31:16.745Z,10.60
2022-11-03T16:33:44.716Z,7.70
2022-11-03T16:36:12.012Z,6.95
2022-11-03T16:38:39.664Z,5.90
2022-11-03T16:41:07.052Z,9.77
2022-11-03T16:43:34.366Z,8.23
2022-11-03T16:46:01.688Z,6.15
2022-11-03T16:48:28.996Z,6.15
2022-11-03T16:50:57.910Z,7.47
2022-11-03T16:53:25.386Z,5.38
2022-11-03T16:55:52.728Z,9.98
2022-11-03T16:58:20.084Z,6.78
2022-11-03T17:00:47.487Z,5.72
2022-11-03T17:03:14.919Z,7.30
2022-11-03T17:05:42.698Z,9.25
2022-11-03T17:08:31.682Z,12.07
2022-11-03T17:10:58.281Z,6.40
2022-11-03T17:13:25.640Z,5.05
2022-11-03T17:15:52.912Z,8.20
2022-11-03T17:18:20.246Z,5.40
2022-11-03T17:20:47.484Z,7.55
2022-11-03T17:23:14.882Z,8.35
2022-11-03T17:25:42.279Z,8.82
2022-11-03T17:28:11.507Z,5.75
2022-11-03T17:30:39.719Z,5.65
2022-11-03T17:33:15.601Z,6.70
2022-11-03T17:35:45.371Z,4.95
2022-11-03T17:38:15.685Z,4.50
2022-11-03T17:40:45.084Z,6.60
2022-11-03T17:43:22.833Z,8.88
2022-11-03T17:45:50.483Z,7.32
2022-11-03T17:48:17.959Z,6.53
2022-11-03T17:50:56.120Z,9.02
2022-11-03T17:53:29.628Z,10.63
2022-11-03T17:58:47.300Z,6.88
2022-11-03T18:01:24.946Z,6.78
2022-11-03T18:03:52.679Z,4.15
2022-11-03T18:06:21.003Z,6.88
2022-11-03T18:08:49.012Z,5.10
2022-11-03T18:11:43.994Z,5.15
2022-11-03T18:14:11.414Z,5.38
2022-11-03T18:16:38.949Z,9.43
2022-11-03T18:19:09.442Z,6.32
2022-11-03T18:21:36.839Z,4.55
2022-11-03T18:24:11.336Z,5.88
2022-11-03T18:26:38.916Z,4.20
2022-11-03T18:31:46.305Z,7.40
2022-11-03T18:34:18.701Z,5.40
2022-11-03T18:36:46.136Z,9.45
2022-11-03T18:39:24.573Z,5.53
2022-11-03T18:41:51.866Z,5.15
2022-11-03T18:44:25.172Z,3.50
2022-11-03T18:46:52.973Z,7.63
2022-11-03T18:49:20.566Z,3.65
2022-11-03T18:52:00.910Z,7.72
2022-11-03T18:54:31.336Z,4.03
2022-11-03T18:56:59.220Z,11.32
2022-11-03T18:59:33.068Z,3.80
2022-11-03T19:02:00.542Z,4.33
2022-11-03T19:04:27.907Z,6.53
2022-11-03T19:06:56.340Z,4.07
2022-11-03T19:09:26.512Z,8.95
2022-11-03T19:11:57.295Z,5.13
2022-11-03T19:14:34.653Z,3.63
2022-11-03T19:19:53.722Z,3.90
2022-11-03T19:22:23.152Z,4.43
2022-11-03T19:24:50.912Z,5.35
2022-11-03T19:27:22.348Z,4.18
2022-11-03T19:29:49.799Z,8.88
2022-11-03T19:32:25.523Z,4.07
2022-11-03T19:35:04.477Z,5.53
2022-11-03T19:37:35.801Z,5.00
2022-11-03T19:40:08.912Z,5.03
2022-11-03T19:42:37.752Z,4.18
2022-11-03T19:45:07.336Z,6.60
2022-11-03T19:47:57.728Z,5.75
2022-11-03T19:53:04.689Z,4.07
2022-11-03T19:55:38.442Z,4.63
2022-11-03T19:58:11.672Z,6.43
2022-11-03T20:00:38.957Z,3.95
2022-11-03T20:03:06.221Z,4.63
2022-11-03T20:05:33.723Z,5.55
2022-11-03T20:08:05.205Z,4.32
2022-11-03T20:10:35.886Z,4.38
2022-11-03T20:13:04.122Z,4.80
2022-11-03T20:15:31.493Z,6.60
2022-11-03T20:17:58.752Z,6.25
2022-11-03T20:20:36.516Z,5.38
2022-11-03T20:23:05.821Z,4.03
2022-11-03T20:25:35.422Z,3.88
2022-11-03T20:28:19.688Z,3.30
2022-11-03T20:30:47.926Z,3.35
2022-11-03T20:33:17.275Z,3.97
2022-11-03T20:35:45.931Z,3.75
2022-11-03T20:38:15.489Z,3.22
2022-11-03T20:40:42.887Z,2.70
2022-11-03T20:43:24.321Z,2.78
2022-11-03T20:45:51.648Z,4.22
2022-11-03T20:48:18.909Z,3.67
2022-11-03T20:50:46.173Z,9.05
2022-11-03T20:53:19.449Z,4.63
2022-11-03T20:55:47.547Z,3.58
2022-11-03T20:58:17.293Z,2.72
2022-11-03T21:00:46.117Z,3.45
2022-11-03T21:03:38.014Z,2.47
2022-11-03T21:06:11.243Z,3.90
2022-11-03T21:08:38.700Z,2.78
2022-11-03T21:11:29.315Z,2.88
2022-11-03T21:14:35.170Z,3.70
2022-11-03T21:17:21.571Z,2.42
2022-11-03T21:19:58.453Z,2.55
2022-11-03T21:25:22.489Z,2.20
2022-11-03T21:27:50.650Z,3.15
2022-11-03T21:30:18.655Z,3.00
2022-11-03T21:35:32.138Z,2.30
2022-11-03T21:38:00.822Z,2.50
2022-11-03T21:40:28.403Z,3.38
2022-11-03T21:43:15.263Z,2.38
2022-11-03T21:45:42.717Z,3.00
2022-11-03T21:48:31.324Z,2.65
2022-11-03T21:51:04.869Z,2.63
2022-11-03T21:53:32.527Z,2.55
2022-11-03T21:56:00.660Z,3.38
2022-11-03T21:58:30.461Z,2.50
2022-11-03T22:01:04.630Z,3.20
2022-11-03T22:03:33.286Z,3.80
2022-11-03T22:06:01.839Z,2.78
2022-11-03T22:08:29.097Z,2.80
2022-11-03T22:11:17.750Z,3.00
2022-11-03T22:13:45.156Z,4.47
2022-11-03T22:16:31.116Z,2.70
2022-11-03T22:19:17.015Z,5.30
2022-11-03T22:22:03.091Z,2.75
2022-11-03T22:24:49.199Z,2.58
2022-11-03T22:27:17.280Z,1.83
2022-11-03T22:30:03.212Z,2.65
2022-11-03T22:32:30.714Z,2.20
2022-11-03T22:35:16.576Z,2.28
2022-11-03T22:37:44.176Z,2.20
2022-11-03T22:40:29.889Z,2.70
2022-11-03T22:43:32.023Z,2.25
2022-11-03T22:45:59.689Z,2.00
2022-11-03T22:48:33.466Z,1.85
2022-11-03T22:51:05.789Z,2.55
2022-11-03T22:53:57.200Z,2.05
2022-11-03T22:56:28.395Z,1.92
2022-11-03T22:58:57.810Z,1.95
2022-11-03T23:01:30.755Z,2.22
2022-11-03T23:04:01.073Z,1.60
2022-11-03T23:06:34.223Z,1.60
2022-11-03T23:09:01.512Z,1.70
2022-11-03T23:11:35.522Z,1.75
2022-11-03T23:14:11.440Z,2.75
2022-11-03T23:16:41.461Z,1.90
2022-11-03T23:19:30.956Z,2.38
2022-11-03T23:21:58.441Z,1.55
2022-11-03T23:24:46.187Z,2.70
2022-11-03T23:27:14.544Z,2.17
2022-11-03T23:29:42.009Z,1.33
2022-11-03T23:32:09.854Z,1.40
2022-11-03T23:34:37.470Z,1.50
2022-11-03T23:37:04.783Z,1.23
2022-11-03T23:39:35.662Z,1.95
2022-11-03T23:42:03.275Z,2.15
2022-11-03T23:44:50.768Z,1.17
2022-11-03T23:47:36.560Z,1.30
2022-11-03T23:50:04.235Z,1.95
2022-11-03T23:52:32.384Z,1.40
2022-11-03T23:55:00.295Z,3.03
2022-11-03T23:57:46.638Z,2.13
